Time;durP1;ratioP1;P1;durP2;ratioP2;P2;SDS_P1;SDS_P2;PMS_P1;PMS_P2;Temp;Humidity;BMP_temperature;BMP_pressure;BME280_temperature;BME280_humidity;BME280_pressure;Samples;Min_cycle;Max_cycle;Signal;HPM_P1;HPM_P2
2023/10/05 00:01:12;;;;;;;12.85;5.13;;;20.70;64.50;;;;;;5073705;28;20502;-50
2023/10/05 00:03:43;;;;;;;11.00;5.38;;;20.70;64.60;;;;;;5073487;28;20567;-50
2023/10/05 00:06:14;;;;;;;14.43;5.10;;;20.70;65.10;;;;;;5073458;28;20400;-49
2023/10/05 00:08:50;;;;;;;11.55;4.53;;;20.70;64.70;;;;;;5073569;28;20032;-56
2023/10/05 00:11:23;;;;;;;11.07;4.63;;;20.70;64.50;;;;;;5055756;28;20495;-49
2023/10/05 00:13:49;;;;;;;11.73;4.43;;;20.70;64.40;;;;;;5073338;28;20131;-49
2023/10/05 00:16:20;;;;;;;10.50;4.93;;;20.70;64.70;;;;;;5073666;28;20107;-53
2023/10/05 00:18:48;;;;;;;10.05;4.35;;;20.70;64.40;;;;;;5073418;28;20031;-51
2023/10/05 00:21:20;;;;;;;11.18;4.80;;;20.70;64.40;;;;;;5073610;28;20403;-49
2023/10/05 00:23:54;;;;;;;10.70;4.78;;;20.70;64.60;;;;;;5073325;28;20025;-49
2023/10/05 00:26:28;;;;;;;12.38;5.00;;;20.70;64.50;;;;;;5073518;28;20095;-52
2023/10/05 00:31:30;;;;;;;7.53;4.38;;;20.70;64.60;;;;;;5073444;28;20479;-56
2023/10/05 00:33:57;;;;;;;8.75;4.03;;;20.70;64.10;;;;;;5073133;28;20467;-57
2023/10/05 00:36:32;;;;;;;11.10;4.57;;;20.60;64.50;;;;;;5055449;28;20111;-51
2023/10/05 00:39:01;;;;;;;10.82;4.90;;;20.70;64.30;;;;;;5073221;28;20132;-57
2023/10/05 00:41:28;;;;;;;12.93;4.43;;;20.60;64.10;;;;;;5072202;28;20025;-57
2023/10/05 00:43:55;;;;;;;9.30;4.40;;;20.60;64.10;;;;;;5072598;28;20048;-58
2023/10/05 00:46:22;;;;;;;13.45;5.35;;;20.70;64.20;;;;;;5055008;28;20032;-58
2023/10/05 00:49:00;;;;;;;11.40;4.68;;;20.70;64.20;;;;;;5072936;28;20028;-54
2023/10/05 00:51:30;;;;;;;10.40;4.13;;;20.60;64.30;;;;;;5055164;28;20068;-58
2023/10/05 00:54:03;;;;;;;10.75;4.70;;;20.60;64.20;;;;;;5072565;28;20506;-56
2023/10/05 00:56:34;;;;;;;8.60;4.45;;;20.60;64.10;;;;;;5038250;28;20043;-57
2023/10/05 00:59:06;;;;;;;11.30;4.90;;;20.60;64.30;;;;;;5054765;28;20025;-57
2023/10/05 01:05:14;;;;;;;13.27;4.68;;;20.70;64.00;;;;;;5072564;28;20043;-57
2023/10/05 01:07:28;;;;;;;11.27;4.40;;;20.70;64.10;;;;;;5046956;28;20542;-55
2023/10/05 01:14:51;;;;;;;12.48;4.82;;;20.60;64.00;;;;;;5072504;28;20032;-58
2023/10/05 01:17:21;;;;;;;10.88;4.30;;;20.60;64.00;;;;;;5072384;28;20108;-57
2023/10/05 01:19:54;;;;;;;12.55;4.78;;;20.60;64.00;;;;;;5054523;28;20484;-59
2023/10/05 01:22:22;;;;;;;10.88;5.03;;;20.60;63.70;;;;;;5054303;28;20442;-57
2023/10/05 01:24:49;;;;;;;11.55;4.63;;;20.60;63.90;;;;;;5072622;28;20369;-54
2023/10/05 02:30:31;;;;;;;9.45;4.22;;;20.50;63.10;;;;;;5070963;28;20452;-57
2023/10/05 02:32:58;;;;;;;10.32;4.00;;;20.50;63.00;;;;;;5052719;28;20040;-59
2023/10/05 02:35:30;;;;;;;14.75;4.53;;;20.50;63.20;;;;;;5071322;28;20107;-58
2023/10/05 02:37:58;;;;;;;11.55;4.55;;;20.50;63.00;;;;;;5052706;28;20068;-59
2023/10/05 02:40:35;;;;;;;9.98;4.20;;;20.50;63.10;;;;;;5052730;28;20483;-59
2023/10/05 02:43:07;;;;;;;12.10;4.18;;;20.50;62.70;;;;;;5052498;28;20024;-57
2023/10/05 02:45:37;;;;;;;12.70;4.30;;;20.50;63.00;;;;;;5052719;28;20024;-55
2023/10/05 02:48:06;;;;;;;11.20;4.35;;;20.50;62.80;;;;;;5052749;28;20451;-58
2023/10/05 02:50:37;;;;;;;13.63;4.47;;;20.50;62.70;;;;;;5052503;28;20032;-59
2023/10/05 02:53:08;;;;;;;11.60;4.18;;;20.50;62.80;;;;;;5052596;28;20612;-59
2023/10/05 02:55:37;;;;;;;8.60;3.85;;;20.50;62.80;;;;;;5070570;28;20100;-58
2023/10/05 02:58:06;;;;;;;8.60;4.05;;;20.50;62.70;;;;;;5070322;28;20111;-57
2023/10/05 03:00:35;;;;;;;8.50;3.57;;;20.50;62.70;;;;;;5052266;28;20093;-57
2023/10/05 03:03:05;;;;;;;11.50;4.28;;;20.50;62.90;;;;;;5052033;28;20336;-57
2023/10/05 03:05:35;;;;;;;8.48;3.78;;;20.50;62.80;;;;;;5055116;28;20028;-58
2023/10/05 03:08:01;;;;;;;9.55;3.97;;;20.50;62.70;;;;;;5056619;28;20380;-58
2023/10/05 03:10:28;;;;;;;11.20;4.20;;;20.50;62.80;;;;;;5056435;28;20055;-58
2023/10/05 03:12:54;;;;;;;11.63;3.83;;;20.50;62.50;;;;;;5056120;28;20039;-59
2023/10/05 03:15:23;;;;;;;13.10;4.90;;;20.50;63.30;;;;;;5056532;28;20468;-59
2023/10/05 03:17:51;;;;;;;8.18;3.92;;;20.50;62.60;;;;;;5056309;28;20108;-59
2023/10/05 03:20:20;;;;;;;12.05;4.28;;;20.50;62.50;;;;;;5056316;28;20029;-58
2023/10/05 03:22:46;;;;;;;11.98;4.70;;;20.50;62.50;;;;;;5056264;28;20555;-57
2023/10/05 03:25:15;;;;;;;8.95;3.95;;;20.50;62.50;;;;;;5074346;28;20035;-59
2023/10/05 03:27:41;;;;;;;11.65;4.38;;;20.50;62.40;;;;;;5074134;28;20383;-59
2023/10/05 03:30:13;;;;;;;11.95;4.55;;;20.50;62.70;;;;;;5056147;28;20029;-58
2023/10/05 03:32:42;;;;;;;11.18;4.25;;;20.50;62.40;;;;;;5073884;28;20529;-58
2023/10/05 03:35:09;;;;;;;9.52;4.30;;;20.50;62.40;;;;;;5056445;28;20024;-59
2023/10/05 03:37:39;;;;;;;9.52;4.07;;;20.50;62.60;;;;;;5074133;28;20195;-59
2023/10/05 03:42:32;;;;;;;12.23;4.05;;;20.50;62.30;;;;;;5055801;28;20516;-55
2023/10/05 03:45:08;;;;;;;8.75;3.80;;;20.50;62.30;;;;;;5056022;28;20036;-57
2023/10/05 03:47:37;;;;;;;10.25;4.00;;;20.50;62.30;;;;;;5039315;28;20033;-58
2023/10/05 03:50:08;;;;;;;10.70;4.05;;;20.50;62.30;;;;;;5055519;28;20093;-54
2023/10/05 03:52:36;;;;;;;11.40;4.57;;;20.50;62.20;;;;;;5055477;28;20069;-55
2023/10/05 03:55:04;;;;;;;11.75;4.38;;;20.50;62.30;;;;;;5055869;28;20404;-56
2023/10/05 03:57:31;;;;;;;12.13;4.30;;;20.50;62.20;;;;;;5055914;28;20025;-59
2023/10/05 03:59:58;;;;;;;11.52;4.05;;;20.50;62.20;;;;;;5055745;28;20450;-57
2023/10/05 04:02:25;;;;;;;10.30;4.32;;;20.50;62.00;;;;;;5055468;28;20071;-55
2023/10/05 04:04:52;;;;;;;13.07;4.78;;;20.50;62.00;;;;;;5055767;28;20028;-56
2023/10/05 04:07:20;;;;;;;13.02;4.25;;;20.50;62.00;;;;;;5073577;28;20028;-58
2023/10/05 04:09:46;;;;;;;9.70;3.45;;;20.50;62.00;;;;;;5073460;28;20024;-57
2023/10/05 04:12:12;;;;;;;11.10;4.03;;;20.50;61.80;;;;;;5073253;28;20107;-57
2023/10/05 04:14:38;;;;;;;10.70;4.38;;;20.40;62.10;;;;;;5073416;28;20044;-58
2023/10/05 04:17:07;;;;;;;9.20;4.00;;;20.50;61.90;;;;;;5073617;28;20020;-57
2023/10/05 04:19:34;;;;;;;10.55;4.63;;;20.40;61.90;;;;;;5073086;28;20025;-56
2023/10/05 04:22:00;;;;;;;12.90;4.78;;;20.40;61.80;;;;;;5073007;28;20025;-55
2023/10/05 04:24:27;;;;;;;10.30;4.45;;;20.40;61.70;;;;;;5073051;28;20033;-57
2023/10/05 04:26:53;;;;;;;12.15;4.60;;;20.40;61.70;;;;;;5073227;28;20024;-58
2023/10/05 04:29:23;;;;;;;10.98;4.32;;;20.40;61.90;;;;;;5072986;28;20056;-58
2023/10/05 04:31:49;;;;;;;;;;;20.40;61.80;;;;;;5073660;28;20036;-54
2023/10/05 04:34:18;;;;;;;11.50;4.47;;;20.40;62.00;;;;;;5072853;28;20398;-56
2023/10/05 04:36:54;;;;;;;11.00;4.63;;;20.40;61.60;;;;;;5073196;28;20029;-57
2023/10/05 04:39:30;;;;;;;13.35;4.75;;;20.40;61.70;;;;;;5056332;28;20111;-56
2023/10/05 04:42:11;;;;;;;13.82;5.35;;;20.40;61.90;;;;;;5072894;28;20480;-53
2023/10/05 04:44:37;;;;;;;10.02;4.88;;;20.40;61.40;;;;;;5055072;28;20107;-54
2023/10/05 04:47:06;;;;;;;13.98;4.70;;;20.40;61.50;;;;;;5072818;28;20032;-58
2023/10/05 04:49:35;;;;;;;13.95;4.82;;;20.40;61.70;;;;;;5097444;22;20055;-63
2023/10/05 04:52:04;;;;;;;12.80;4.97;;;20.40;61.50;;;;;;5071718;28;20028;-64
2023/10/05 04:54:34;;;;;;;14.18;5.43;;;20.40;61.60;;;;;;5072381;28;20028;-64
2023/10/05 04:57:07;;;;;;;14.15;4.93;;;20.40;61.40;;;;;;5072695;28;20118;-64
2023/10/05 05:02:21;;;;;;;11.13;4.57;;;20.40;61.50;;;;;;5072461;28;20020;-63
2023/10/05 05:07:17;;;;;;;12.50;5.00;;;20.30;61.60;;;;;;5072429;28;20465;-64
2023/10/05 05:09:43;;;;;;;13.13;5.10;;;20.40;61.60;;;;;;5071004;28;20066;-64
2023/10/05 05:12:18;;;;;;;11.90;4.65;;;20.40;61.50;;;;;;5072038;28;20071;-63
2023/10/05 05:14:45;;;;;;;11.70;5.28;;;20.40;61.50;;;;;;5072306;28;20032;-64
2023/10/05 05:17:16;;;;;;;14.57;5.57;;;20.40;61.90;;;;;;5072454;28;20028;-64
2023/10/05 05:19:42;;;;;;;13.57;5.63;;;20.40;61.60;;;;;;5072132;28;20028;-64
2023/10/05 05:22:08;;;;;;;14.27;5.47;;;20.40;61.60;;;;;;5071838;28;20024;-64
2023/10/05 05:24:36;;;;;;;28.30;5.95;;;20.30;61.60;;;;;;5071951;28;20039;-63
2023/10/05 05:29:45;;;;;;;13.95;5.88;;;20.30;61.70;;;;;;5071999;28;20484;-64
2023/10/05 05:32:11;;;;;;;12.90;5.57;;;20.40;61.90;;;;;;5070274;28;20021;-64
2023/10/05 05:34:38;;;;;;;11.77;5.43;;;20.40;61.50;;;;;;5071655;28;20031;-64
2023/10/05 05:37:08;;;;;;;13.60;5.63;;;20.30;61.40;;;;;;5071788;28;20349;-64
2023/10/05 05:39:40;;;;;;;16.65;6.50;;;20.40;61.40;;;;;;5071581;28;20496;-63
2023/10/05 05:42:13;;;;;;;13.90;5.22;;;20.30;61.30;;;;;;5071392;28;20021;-63
2023/10/05 05:44:40;;;;;;;14.27;5.90;;;20.30;61.40;;;;;;5071556;28;20074;-63
2023/10/05 05:47:10;;;;;;;16.67;5.40;;;20.30;61.70;;;;;;5071428;28;20055;-64
2023/10/05 05:49:45;;;;;;;16.30;5.70;;;20.30;61.60;;;;;;5071288;28;20029;-64
2023/10/05 05:52:12;;;;;;;14.80;5.57;;;20.30;61.60;;;;;;5071160;28;20082;-64
2023/10/05 05:54:42;;;;;;;15.15;6.10;;;20.30;61.60;;;;;;5070162;28;20350;-64
2023/10/05 05:57:09;;;;;;;;;;;20.30;61.70;;;;;;5071847;28;20040;-64
2023/10/05 05:59:36;;;;;;;22.33;5.75;;;20.30;62.20;;;;;;5071147;28;19912;-64
2023/10/05 06:02:04;;;;;;;17.35;5.70;;;20.40;61.90;;;;;;5071210;28;20139;-64
2023/10/05 06:04:32;;;;;;;14.82;5.72;;;20.40;62.10;;;;;;5071187;28;20483;-64
2023/10/05 06:06:59;;;;;;;23.08;6.38;;;20.40;62.60;;;;;;5070370;28;20026;-64
2023/10/05 06:09:29;;;;;;;15.60;5.28;;;20.40;62.50;;;;;;5069800;28;20039;-64
2023/10/05 06:11:55;;;;;;;14.57;4.85;;;20.40;62.30;;;;;;5069684;28;20029;-64
2023/10/05 06:14:21;;;;;;;21.08;5.40;;;20.40;62.50;;;;;;5070948;28;20073;-64
2023/10/05 06:16:48;;;;;;;15.98;5.63;;;20.40;62.30;;;;;;5071069;28;20035;-65
2023/10/05 06:19:14;;;;;;;19.85;5.82;;;20.40;62.30;;;;;;5070749;28;20033;-63
2023/10/05 06:21:40;;;;;;;24.85;5.88;;;20.40;62.40;;;;;;5071030;28;20085;-61
2023/10/05 06:24:06;;;;;;;24.40;6.10;;;20.50;62.80;;;;;;5070700;28;20043;-65
2023/10/05 06:26:32;;;;;;;21.55;6.28;;;20.50;62.10;;;;;;5070681;28;20028;-64
2023/10/05 06:28:58;;;;;;;13.05;5.03;;;20.40;61.80;;;;;;5069366;28;20031;-64
2023/10/05 06:31:23;;;;;;;15.43;5.15;;;20.40;62.40;;;;;;5068576;28;20495;-65
2023/10/05 06:33:51;;;;;;;18.73;5.40;;;20.40;62.00;;;;;;5070206;28;20021;-65
2023/10/05 06:36:17;;;;;;;23.05;5.65;;;20.40;61.70;;;;;;5070914;28;20032;-65
2023/10/05 06:38:43;;;;;;;16.88;5.50;;;20.40;62.30;;;;;;5070189;28;20582;-65
2023/10/05 06:41:08;;;;;;;20.80;5.40;;;20.40;61.70;;;;;;5070657;28;20024;-65
2023/10/05 06:43:35;;;;;;;13.23;5.32;;;20.40;61.80;;;;;;5070543;28;20032;-65
2023/10/05 06:46:26;;;;;;;14.80;5.65;;;20.40;61.80;;;;;;5070853;28;20103;-65
2023/10/05 06:48:50;;;;;;;12.95;5.63;;;20.30;61.60;;;;;;5070443;28;20029;-65
2023/10/05 06:51:26;;;;;;;14.27;5.53;;;20.30;61.60;;;;;;5070562;28;20115;-65
2023/10/05 06:53:52;;;;;;;17.75;5.70;;;20.30;61.80;;;;;;5070529;28;20437;-65
2023/10/05 06:56:21;;;;;;;17.20;5.93;;;20.30;62.00;;;;;;5069441;28;20123;-63
2023/10/05 06:58:48;;;;;;;15.70;5.15;;;20.30;61.70;;;;;;5070229;28;20083;-64
2023/10/05 07:01:14;;;;;;;17.52;5.50;;;20.40;61.90;;;;;;5069449;28;20024;-63
2023/10/05 07:03:40;;;;;;;13.73;4.90;;;20.30;62.00;;;;;;5070272;28;20035;-63
2023/10/05 07:06:06;;;;;;;13.27;4.88;;;20.30;61.60;;;;;;5070533;28;20031;-63
2023/10/05 07:08:33;;;;;;;13.05;5.30;;;20.30;61.70;;;;;;5069211;28;20047;-63
2023/10/05 07:10:59;;;;;;;13.18;5.43;;;20.30;61.60;;;;;;5070388;28;20396;-64
2023/10/05 07:13:28;;;;;;;11.77;4.63;;;20.30;61.80;;;;;;5070209;28;20237;-64
2023/10/05 07:15:58;;;;;;;11.67;4.90;;;20.30;61.90;;;;;;5069158;28;20032;-64
2023/10/05 07:18:24;;;;;;;15.10;5.28;;;20.30;61.80;;;;;;5069282;28;20321;-63
2023/10/05 07:20:50;;;;;;;13.30;5.40;;;20.30;61.80;;;;;;5070334;28;20030;-64
2023/10/05 07:23:17;;;;;;;11.80;5.03;;;20.30;61.70;;;;;;5068752;28;20033;-64
2023/10/05 07:25:43;;;;;;;11.43;5.03;;;20.30;61.90;;;;;;5070557;28;20061;-65
2023/10/05 07:28:14;;;;;;;12.68;5.22;;;20.30;61.90;;;;;;5070463;28;20434;-64
2023/10/05 07:30:45;;;;;;;12.63;5.78;;;20.30;62.00;;;;;;5069109;28;20507;-65
2023/10/05 07:33:11;;;;;;;12.85;4.57;;;20.30;61.60;;;;;;5068990;28;20369;-64
2023/10/05 07:35:38;;;;;;;12.57;4.47;;;20.30;62.10;;;;;;5070204;28;20039;-65
2023/10/05 07:38:06;;;;;;;13.35;4.93;;;20.30;61.80;;;;;;5070382;28;20502;-64
2023/10/05 07:40:35;;;;;;;13.35;5.25;;;20.30;61.60;;;;;;5070324;28;20036;-65
2023/10/05 07:43:03;;;;;;;11.02;4.72;;;20.30;62.60;;;;;;5070102;28;20415;-65
2023/10/05 07:45:29;;;;;;;14.07;5.15;;;20.30;61.90;;;;;;5070377;28;20031;-64
2023/10/05 07:47:55;;;;;;;14.38;5.32;;;20.30;62.00;;;;;;5070261;28;20025;-65
2023/10/05 07:50:23;;;;;;;12.35;5.22;;;20.40;62.10;;;;;;5069567;28;20040;-64
2023/10/05 07:52:49;;;;;;;12.32;4.68;;;20.30;62.60;;;;;;5073810;28;20078;-65
2023/10/05 07:55:15;;;;;;;13.07;5.55;;;20.30;62.10;;;;;;5074091;28;20570;-64
2023/10/05 07:57:42;;;;;;;12.13;5.03;;;20.40;62.40;;;;;;5073978;28;20059;-64
2023/10/05 08:00:12;;;;;;;12.55;5.10;;;20.30;62.10;;;;;;5073972;28;20028;-64
2023/10/05 08:02:38;;;;;;;12.18;4.50;;;20.40;62.00;;;;;;5073592;28;20459;-64
2023/10/05 08:05:05;;;;;;;14.13;5.32;;;20.30;62.00;;;;;;5073799;28;20037;-66
2023/10/05 08:07:31;;;;;;;15.23;4.70;;;20.30;62.10;;;;;;5073891;28;20036;-64
2023/10/05 08:09:59;;;;;;;11.68;4.60;;;20.40;62.10;;;;;;5073662;28;20020;-64
2023/10/05 08:12:27;;;;;;;11.23;5.00;;;20.40;62.20;;;;;;5073374;28;20028;-64
2023/10/05 08:14:54;;;;;;;9.18;4.63;;;20.40;62.80;;;;;;5073696;28;20020;-64
2023/10/05 08:17:21;;;;;;;10.63;4.72;;;20.40;62.20;;;;;;5073574;28;20551;-64
2023/10/05 08:19:47;;;;;;;12.88;5.60;;;20.30;62.40;;;;;;5072257;28;20032;-64
2023/10/05 08:22:16;;;;;;;12.98;4.93;;;20.30;62.40;;;;;;5072208;28;20032;-65
2023/10/05 08:24:42;;;;;;;12.68;4.43;;;20.30;62.30;;;;;;5073779;28;20024;-65
2023/10/05 08:27:14;;;;;;;10.90;4.90;;;20.30;62.40;;;;;;5074140;28;20028;-64
2023/10/05 08:29:44;;;;;;;12.70;4.85;;;20.40;62.50;;;;;;5074414;28;20364;-64
2023/10/05 08:32:13;;;;;;;13.20;4.53;;;20.30;62.30;;;;;;5074371;28;20032;-65
2023/10/05 08:34:41;;;;;;;12.50;4.82;;;20.30;62.30;;;;;;5074504;28;20081;-64
2023/10/05 08:37:08;;;;;;;13.90;4.82;;;20.30;62.40;;;;;;5074695;28;20472;-64
2023/10/05 08:39:37;;;;;;;11.50;4.57;;;20.30;62.20;;;;;;5072984;28;20519;-64
2023/10/05 08:42:06;;;;;;;14.02;5.03;;;20.30;62.50;;;;;;5073189;28;20020;-64
2023/10/05 08:44:38;;;;;;;12.25;4.35;;;20.30;62.30;;;;;;5073274;28;20027;-64
2023/10/05 08:47:08;;;;;;;9.55;4.57;;;20.30;62.40;;;;;;5073363;28;20025;-64
2023/10/05 08:49:34;;;;;;;;;;;20.30;62.40;;;;;;5055892;28;20484;-65
2023/10/05 08:52:08;;;;;;;12.02;4.40;;;20.30;62.60;;;;;;5073135;28;19915;-64
2023/10/05 08:54:34;;;;;;;10.85;4.88;;;20.30;62.30;;;;;;5073194;28;20499;-65
2023/10/05 08:57:09;;;;;;;12.27;4.50;;;20.30;62.10;;;;;;5071721;28;20065;-64
2023/10/05 08:59:45;;;;;;;13.35;4.60;;;20.30;62.50;;;;;;5071934;28;20043;-65
2023/10/05 09:02:11;;;;;;;10.25;4.22;;;20.30;62.50;;;;;;5071554;28;20024;-64
2023/10/05 09:04:43;;;;;;;12.43;4.60;;;20.30;62.30;;;;;;5072672;28;20036;-64
2023/10/05 09:07:38;;;;;;;10.77;3.97;;;20.40;62.20;;;;;;5073073;28;20376;-64
2023/10/05 09:10:05;;;;;;;9.18;4.18;;;20.40;62.30;;;;;;5072811;28;20095;-64
2023/10/05 09:12:35;;;;;;;13.90;4.80;;;20.40;62.20;;;;;;5072472;28;20385;-64
2023/10/05 09:15:10;;;;;;;12.15;4.05;;;20.40;62.20;;;;;;5071217;28;20033;-64
2023/10/05 09:17:37;;;;;;;13.57;4.40;;;20.40;62.50;;;;;;5072598;28;20032;-64
2023/10/05 09:20:19;;;;;;;9.95;4.30;;;20.40;62.50;;;;;;5071260;28;20511;-64
2023/10/05 09:22:53;;;;;;;12.07;4.22;;;20.40;62.40;;;;;;5070821;28;20551;-65
2023/10/05 09:25:27;;;;;;;11.02;4.53;;;20.40;62.50;;;;;;5072142;28;20032;-64
2023/10/05 09:28:09;;;;;;;10.77;4.30;;;20.40;62.50;;;;;;5072414;28;20500;-64
2023/10/05 09:30:51;;;;;;;12.00;4.13;;;20.40;62.60;;;;;;5072146;28;20195;-65
2023/10/05 09:33:18;;;;;;;10.52;3.95;;;20.40;62.50;;;;;;5070600;28;20028;-64
2023/10/05 09:35:47;;;;;;;10.10;4.32;;;20.40;62.50;;;;;;5072703;28;20028;-64
2023/10/05 09:38:24;;;;;;;10.85;4.40;;;20.40;62.70;;;;;;5072263;28;20032;-64
2023/10/05 09:40:54;;;;;;;8.85;3.85;;;20.40;62.50;;;;;;5072113;28;20435;-64
2023/10/05 09:43:23;;;;;;;13.52;4.22;;;20.40;62.60;;;;;;5072045;28;20421;-64
2023/10/05 09:45:52;;;;;;;11.40;3.95;;;20.40;62.50;;;;;;5070693;28;20021;-64
2023/10/05 09:48:20;;;;;;;11.20;3.83;;;20.40;62.40;;;;;;5071983;28;20052;-64
2023/10/05 09:50:47;;;;;;;12.00;4.05;;;20.40;62.50;;;;;;5071571;28;20271;-64
2023/10/05 09:53:17;;;;;;;7.60;3.53;;;20.40;62.70;;;;;;5071619;28;20032;-65
2023/10/05 09:55:53;;;;;;;9.65;4.15;;;20.40;62.60;;;;;;5071963;28;20028;-65
2023/10/05 09:58:21;;;;;;;9.70;4.00;;;20.40;62.70;;;;;;5071650;28;20040;-64
2023/10/05 10:03:14;;;;;;;9.00;4.22;;;20.40;62.70;;;;;;5071292;28;20484;-64
2023/10/05 10:06:12;;;;;;;10.48;4.03;;;20.40;62.60;;;;;;5071435;28;20103;-64
2023/10/05 10:08:51;;;;;;;9.63;4.57;;;20.40;62.70;;;;;;5071568;28;20095;-65
2023/10/05 10:11:18;;;;;;;9.50;4.18;;;20.40;62.60;;;;;;5071424;28;20400;-65
2023/10/05 10:14:01;;;;;;;14.10;4.75;;;20.40;62.60;;;;;;5071067;28;20029;-65
2023/10/05 10:16:31;;;;;;;10.38;3.95;;;20.40;62.70;;;;;;5070405;28;20516;-64
2023/10/05 10:19:07;;;;;;;12.10;4.43;;;20.40;62.70;;;;;;5071653;28;20048;-65
2023/10/05 10:21:46;;;;;;;10.57;4.35;;;20.40;62.80;;;;;;5071312;28;20024;-64
2023/10/05 10:24:20;;;;;;;10.57;4.60;;;20.30;62.70;;;;;;5070901;28;20107;-65
2023/10/05 10:26:53;;;;;;;9.30;4.38;;;20.30;62.70;;;;;;5087014;28;20068;-65
2023/10/05 10:29:22;;;;;;;9.25;3.92;;;20.30;62.70;;;;;;5071460;28;20024;-65
2023/10/05 10:32:19;;;;;;;12.80;4.65;;;20.30;62.70;;;;;;5071177;28;20024;-65
2023/10/05 10:34:50;;;;;;;11.30;3.97;;;20.30;62.70;;;;;;5071429;28;20029;-65
2023/10/05 10:37:48;;;;;;;11.27;4.30;;;20.30;62.60;;;;;;5071375;28;20502;-65
2023/10/05 10:45:36;;;;;;;12.35;4.45;;;20.30;62.70;;;;;;5071320;28;20412;-65
2023/10/05 10:48:21;;;;;;;10.35;4.13;;;20.30;62.80;;;;;;5071376;28;20020;-65
2023/10/05 10:50:52;;;;;;;17.63;4.85;;;20.30;62.90;;;;;;5071148;28;20028;-65
2023/10/05 10:53:23;;;;;;;9.73;3.88;;;20.30;63.50;;;;;;5069638;28;20052;-65
2023/10/05 10:56:03;;;;;;;9.75;3.95;;;20.30;62.90;;;;;;5071424;28;20032;-65
2023/10/05 10:58:31;;;;;;;11.32;4.47;;;20.30;63.10;;;;;;5071317;28;20036;-65
2023/10/05 11:01:03;;;;;;;10.63;4.13;;;20.30;62.90;;;;;;5070828;28;20032;-65
2023/10/05 11:03:36;;;;;;;10.93;4.10;;;20.30;62.90;;;;;;5070703;28;20059;-65
2023/10/05 11:06:04;;;;;;;13.38;4.13;;;20.20;62.80;;;;;;5071049;28;20062;-65
2023/10/05 11:08:40;;;;;;;10.35;4.07;;;20.30;62.90;;;;;;5071020;28;20028;-65
2023/10/05 11:11:15;;;;;;;10.50;4.22;;;20.30;63.00;;;;;;5069774;28;20036;-66
2023/10/05 11:13:48;;;;;;;10.80;4.35;;;20.30;63.00;;;;;;5070625;28;20024;-65
2023/10/05 11:16:15;;;;;;;11.30;3.92;;;20.20;62.90;;;;;;5070920;28;20492;-65
2023/10/05 11:19:04;;;;;;;7.82;3.38;;;20.20;62.70;;;;;;5070627;28;20063;-64
2023/10/05 11:21:35;;;;;;;10.65;3.90;;;20.30;62.90;;;;;;5070599;28;20545;-65
2023/10/05 11:24:07;;;;;;;8.70;3.70;;;20.20;62.80;;;;;;5070082;28;20033;-65
2023/10/05 11:26:33;;;;;;;11.50;4.15;;;20.20;62.80;;;;;;5073260;28;20150;-65
2023/10/05 11:29:15;;;;;;;11.10;3.92;;;20.20;62.70;;;;;;5074352;28;20024;-65
2023/10/05 11:31:41;;;;;;;6.70;3.50;;;20.20;62.80;;;;;;5074384;28;20025;-65
2023/10/05 11:34:12;;;;;;;9.60;3.95;;;20.20;62.80;;;;;;5074316;28;20032;-65
2023/10/05 11:36:44;;;;;;;12.35;4.57;;;20.20;62.70;;;;;;5074327;28;20031;-65
2023/10/05 11:39:22;;;;;;;7.35;3.22;;;20.20;62.90;;;;;;5074411;28;20028;-65
2023/10/05 11:41:48;;;;;;;11.60;4.00;;;20.20;62.80;;;;;;5074142;28;20028;-65
2023/10/05 11:44:24;;;;;;;8.70;3.65;;;20.30;62.90;;;;;;5073909;28;20071;-65
2023/10/05 11:46:54;;;;;;;8.77;3.15;;;20.20;62.90;;;;;;5074088;28;20025;-65
2023/10/05 11:49:30;;;;;;;8.85;3.78;;;20.20;63.00;;;;;;5074141;28;20032;-65
2023/10/05 11:51:57;;;;;;;11.88;4.00;;;20.20;63.10;;;;;;5074196;28;20032;-65
2023/10/05 11:54:30;;;;;;;8.68;3.70;;;20.20;63.20;;;;;;5072644;28;20429;-65
2023/10/05 11:56:56;;;;;;;9.68;3.38;;;20.20;63.30;;;;;;5073919;28;20033;-65
2023/10/05 11:59:31;;;;;;;8.63;3.78;;;20.20;63.50;;;;;;5073882;28;20500;-65
2023/10/05 12:01:57;;;;;;;9.80;3.45;;;20.20;63.60;;;;;;5073902;28;20021;-65
2023/10/05 12:04:26;;;;;;;9.35;3.60;;;20.20;63.60;;;;;;5073667;28;20441;-65
2023/10/05 12:07:01;;;;;;;8.10;3.70;;;20.20;63.60;;;;;;5073759;28;20055;-65
2023/10/05 12:09:43;;;;;;;9.48;3.70;;;20.20;63.70;;;;;;5073558;28;20375;-65
2023/10/05 12:12:13;;;;;;;9.23;3.70;;;20.20;63.80;;;;;;5073744;28;20055;-65
2023/10/05 12:14:41;;;;;;;8.23;3.50;;;20.20;63.80;;;;;;5073707;28;20024;-65
2023/10/05 12:17:07;;;;;;;10.27;3.63;;;20.20;63.90;;;;;;5073653;28;20159;-65
2023/10/05 12:19:35;;;;;;;10.48;3.92;;;20.20;64.00;;;;;;5072328;28;20024;-65
2023/10/05 12:22:01;;;;;;;11.20;4.00;;;20.20;64.10;;;;;;5073494;28;20021;-65
2023/10/05 12:24:30;;;;;;;11.63;3.83;;;20.20;64.10;;;;;;5073367;28;20482;-65
2023/10/05 12:26:59;;;;;;;13.00;3.58;;;20.20;64.20;;;;;;5073423;28;20519;-65
2023/10/05 12:29:29;;;;;;;8.55;3.38;;;20.20;64.20;;;;;;5073202;28;20028;-65
2023/10/05 12:32:01;;;;;;;9.00;3.45;;;20.20;64.10;;;;;;5072065;28;20447;-65
2023/10/05 12:34:27;;;;;;;9.82;3.63;;;20.20;64.10;;;;;;5073099;28;20028;-65
2023/10/05 12:36:53;;;;;;;9.27;3.40;;;20.20;64.00;;;;;;5071901;28;20447;-65
2023/10/05 12:39:20;;;;;;;8.63;3.65;;;20.20;64.00;;;;;;5073084;28;20029;-65
2023/10/05 12:41:50;;;;;;;8.07;3.67;;;20.20;64.60;;;;;;5072870;28;20028;-65
2023/10/05 12:44:17;;;;;;;9.05;3.53;;;20.20;64.00;;;;;;5072728;28;20075;-65
2023/10/05 12:46:45;;;;;;;10.48;4.03;;;20.30;64.00;;;;;;5073231;28;20115;-65
2023/10/05 12:49:15;;;;;;;7.43;3.28;;;20.30;64.00;;;;;;5073013;28;20078;-65
2023/10/05 12:51:44;;;;;;;9.15;3.70;;;20.20;64.00;;;;;;5072801;28;20040;-65
2023/10/05 12:54:19;;;;;;;9.82;3.70;;;20.30;64.10;;;;;;5072583;28;20035;-66
2023/10/05 12:56:51;;;;;;;9.15;3.83;;;20.20;64.10;;;;;;5072937;28;20032;-65
2023/10/05 12:59:21;;;;;;;8.68;4.07;;;20.30;64.80;;;;;;5072723;28;20036;-65
2023/10/05 13:01:48;;;;;;;9.60;3.88;;;20.30;64.90;;;;;;5072592;28;20024;-65
2023/10/05 13:04:16;;;;;;;7.45;3.50;;;20.20;64.20;;;;;;5072643;28;20032;-65
2023/10/05 13:06:44;;;;;;;10.57;3.75;;;20.20;64.30;;;;;;5072583;28;20021;-65
2023/10/05 13:09:13;;;;;;;8.75;3.75;;;20.20;64.30;;;;;;5071324;28;20029;-65
2023/10/05 13:11:41;;;;;;;9.13;3.33;;;20.20;64.20;;;;;;5072630;28;20025;-65
2023/10/05 13:14:10;;;;;;;8.77;3.80;;;20.20;64.40;;;;;;5072258;28;20048;-65
2023/10/05 13:16:36;;;;;;;8.60;3.60;;;20.20;64.30;;;;;;5072876;28;20407;-65
2023/10/05 13:19:06;;;;;;;8.43;3.30;;;20.30;64.40;;;;;;5072657;28;20104;-64
2023/10/05 13:21:32;;;;;;;12.23;3.65;;;20.30;64.50;;;;;;5072455;28;20032;-65
2023/10/05 13:23:58;;;;;;;8.70;3.47;;;20.20;64.50;;;;;;5072365;28;20070;-65
2023/10/05 13:26:26;;;;;;;9.18;3.45;;;20.20;64.60;;;;;;5072531;28;20388;-65
2023/10/05 13:28:53;;;;;;;7.13;3.38;;;20.20;64.70;;;;;;5072415;28;20024;-65
2023/10/05 13:31:20;;;;;;;6.30;2.83;;;20.20;64.80;;;;;;5072520;28;20025;-65
2023/10/05 13:33:48;;;;;;;7.90;3.10;;;20.20;64.80;;;;;;5070833;28;20020;-65
2023/10/05 13:36:14;;;;;;;4.75;2.65;;;20.20;64.80;;;;;;5072783;28;20028;-65
2023/10/05 13:38:43;;;;;;;7.03;2.72;;;20.20;64.80;;;;;;5072299;28;20024;-65
2023/10/05 13:41:18;;;;;;;6.78;2.80;;;20.20;64.80;;;;;;5072108;28;20751;-65
2023/10/05 13:43:45;;;;;;;6.72;2.85;;;20.20;64.80;;;;;;5071922;28;20024;-65
2023/10/05 13:48:45;;;;;;;6.15;2.58;;;20.20;64.80;;;;;;5071648;28;20024;-65
2023/10/05 13:51:15;;;;;;;6.25;3.00;;;20.20;64.70;;;;;;5071847;28;20020;-65
2023/10/05 13:53:44;;;;;;;6.20;2.83;;;20.20;64.70;;;;;;5072005;28;20093;-65
2023/10/05 13:56:14;;;;;;;7.47;2.95;;;20.20;64.80;;;;;;5071892;28;20024;-65
2023/10/05 13:58:46;;;;;;;7.10;2.17;;;20.20;64.80;;;;;;5071789;28;20056;-65
2023/10/05 14:01:23;;;;;;;6.35;2.67;;;20.20;64.80;;;;;;5071821;28;20035;-65
2023/10/05 14:03:53;;;;;;;5.30;2.42;;;20.10;64.80;;;;;;5071353;28;20051;-65
2023/10/05 14:06:20;;;;;;;8.48;2.45;;;20.20;64.70;;;;;;5071606;28;20029;-65
2023/10/05 14:08:46;;;;;;;7.55;2.50;;;20.20;64.80;;;;;;5071703;28;20025;-65
2023/10/05 14:11:13;;;;;;;5.13;2.30;;;20.20;64.70;;;;;;5071337;28;20074;-65
2023/10/05 14:13:39;;;;;;;4.80;2.40;;;20.10;64.80;;;;;;5071267;28;20024;-65
2023/10/05 14:16:05;;;;;;;5.32;2.55;;;20.10;64.80;;;;;;5071744;28;20577;-65
2023/10/05 14:18:33;;;;;;;5.32;2.33;;;20.20;64.90;;;;;;5071738;28;20032;-65
2023/10/05 14:21:02;;;;;;;7.70;2.50;;;20.20;64.90;;;;;;5071508;28;20032;-65
2023/10/05 14:23:29;;;;;;;3.22;1.95;;;20.20;64.90;;;;;;5071278;28;20033;-66
2023/10/05 14:25:57;;;;;;;6.03;2.53;;;20.10;64.80;;;;;;5071241;28;20521;-65
2023/10/05 14:28:26;;;;;;;5.00;2.00;;;20.20;65.40;;;;;;5071393;28;20021;-65